createdAt,value
2018-06-04T00:01:56.278Z,21.93
2018-06-04T00:06:50.829Z,22.43
2018-06-04T00:11:45.402Z,21.77
2018-06-04T00:16:40.035Z,22.13
2018-06-04T00:21:34.921Z,22.53
2018-06-04T00:26:29.989Z,22.53
2018-06-04T00:31:25.215Z,22.33
2018-06-04T00:36:20.138Z,21.00
2018-06-04T00:41:14.840Z,21.03
2018-06-04T00:46:09.611Z,21.00
2018-06-04T00:51:04.209Z,21.57
2018-06-04T00:56:15.789Z,21.87
2018-06-04T01:01:10.550Z,21.40
2018-06-04T01:06:05.019Z,20.47
2018-06-04T01:10:59.656Z,21.77
2018-06-04T01:15:54.373Z,21.70
2018-06-04T01:20:48.838Z,22.10
2018-06-04T01:25:45.528Z,23.57
2018-06-04T01:30:40.115Z,22.83
2018-06-04T01:35:34.614Z,23.93
2018-06-04T01:40:29.420Z,23.13
2018-06-04T01:45:24.113Z,24.67
2018-06-04T01:50:19.181Z,24.90
2018-06-04T01:55:13.723Z,25.97
2018-06-04T02:00:08.381Z,26.33
2018-06-04T02:05:02.663Z,25.53
2018-06-04T02:09:57.544Z,25.13
2018-06-04T02:14:51.742Z,25.87
2018-06-04T02:19:46.489Z,25.77
2018-06-04T02:24:41.038Z,25.37
2018-06-04T02:29:35.493Z,25.23
2018-06-04T02:34:29.973Z,26.47
2018-06-04T02:39:24.446Z,25.50
2018-06-04T02:44:18.917Z,25.33
2018-06-04T02:49:13.318Z,27.57
2018-06-04T02:54:07.795Z,25.93
2018-06-04T02:59:02.286Z,26.20
2018-06-04T03:03:56.742Z,25.20
2018-06-04T03:08:51.457Z,25.83
2018-06-04T03:13:45.918Z,23.97
2018-06-04T03:18:40.670Z,25.40
2018-06-04T03:23:35.181Z,25.07
2018-06-04T03:28:29.884Z,24.37
2018-06-04T03:33:24.447Z,24.57
2018-06-04T03:38:18.623Z,23.20
2018-06-04T03:43:13.066Z,24.70
2018-06-04T03:48:07.297Z,27.10
2018-06-04T03:53:01.767Z,24.20
2018-06-04T03:57:56.749Z,22.97
2018-06-04T04:02:51.358Z,23.87
2018-06-04T04:07:45.961Z,22.57
2018-06-04T04:12:40.439Z,22.03
2018-06-04T04:17:34.917Z,21.67
2018-06-04T04:22:29.399Z,21.27
2018-06-04T04:27:23.649Z,21.87
2018-06-04T04:32:18.158Z,20.43
2018-06-04T04:37:12.647Z,22.60
2018-06-04T04:42:07.330Z,21.43
2018-06-04T04:47:01.799Z,20.87
2018-06-04T04:51:56.266Z,21.77
2018-06-04T04:56:50.703Z,21.97
2018-06-04T05:01:45.176Z,21.20
2018-06-04T05:06:39.812Z,21.57
2018-06-04T05:11:34.459Z,20.13
2018-06-04T05:16:28.703Z,19.40
2018-06-04T05:21:23.630Z,18.87
2018-06-04T05:26:18.378Z,18.60
2018-06-04T05:31:12.642Z,17.33
2018-06-04T05:36:07.100Z,17.90
2018-06-04T05:41:01.561Z,18.17
2018-06-04T05:45:56.314Z,17.70
2018-06-04T05:50:51.059Z,17.33
2018-06-04T05:55:45.850Z,17.63
2018-06-04T06:00:40.606Z,16.73
2018-06-04T06:05:35.721Z,17.37
2018-06-04T06:10:30.472Z,15.73
2018-06-04T06:15:25.324Z,16.37
2018-06-04T06:20:20.374Z,15.40
2018-06-04T06:25:15.287Z,16.83
2018-06-04T06:30:10.705Z,16.27
2018-06-04T06:35:05.435Z,14.63
2018-06-04T06:40:00.175Z,15.13
2018-06-04T06:44:55.182Z,14.60
2018-06-04T06:49:50.336Z,13.20
2018-06-04T06:54:44.874Z,13.33
2018-06-04T06:59:40.019Z,12.87
2018-06-04T07:04:34.890Z,12.60
2018-06-04T07:09:29.438Z,14.73
2018-06-04T07:14:24.233Z,13.33
2018-06-04T07:19:18.996Z,13.07
2018-06-04T07:24:13.875Z,13.80
2018-06-04T07:29:08.717Z,12.47
2018-06-04T07:34:03.496Z,12.30
2018-06-04T07:38:58.303Z,11.00
2018-06-04T07:43:53.217Z,10.90
2018-06-04T07:48:48.197Z,10.33
2018-06-04T07:53:43.113Z,10.70
2018-06-04T07:58:38.053Z,10.23
2018-06-04T08:03:32.898Z,10.97
2018-06-04T08:08:27.661Z,10.40
2018-06-04T08:13:22.607Z,10.20
2018-06-04T08:18:17.394Z,9.13
2018-06-04T08:23:12.141Z,8.30
2018-06-04T08:28:07.001Z,8.50
2018-06-04T08:33:01.561Z,7.30
2018-06-04T08:37:56.550Z,7.57
2018-06-04T08:42:51.355Z,6.97
2018-06-04T08:47:46.193Z,6.73
2018-06-04T08:52:40.905Z,5.70
2018-06-04T08:57:35.871Z,5.97
2018-06-04T09:02:30.809Z,5.43
2018-06-04T09:07:25.312Z,6.07
2018-06-04T09:12:19.914Z,6.40
2018-06-04T09:17:15.005Z,5.70
2018-06-04T09:22:09.746Z,6.10
2018-06-04T09:27:04.875Z,6.50
2018-06-04T09:31:59.662Z,5.60
2018-06-04T09:36:54.382Z,6.50
2018-06-04T09:41:49.150Z,6.37
2018-06-04T09:46:43.892Z,6.20
2018-06-04T09:51:38.630Z,5.87
2018-06-04T09:56:33.235Z,5.30
2018-06-04T10:01:27.964Z,6.20
2018-06-04T10:06:23.129Z,5.83
2018-06-04T10:11:18.295Z,5.70
2018-06-04T10:16:13.331Z,6.43
2018-06-04T10:21:08.224Z,5.67
2018-06-04T10:26:02.952Z,6.50
2018-06-04T10:30:58.209Z,5.83
2018-06-04T10:35:53.040Z,5.10
2018-06-04T10:40:47.787Z,5.60
2018-06-04T10:45:42.603Z,5.40
2018-06-04T10:50:37.382Z,5.23
2018-06-04T10:55:32.399Z,5.73
2018-06-04T11:00:27.171Z,5.70
2018-06-04T11:05:22.238Z,5.73
2018-06-04T11:10:17.022Z,5.30
2018-06-04T11:15:12.007Z,5.53
2018-06-04T11:20:06.732Z,5.13
2018-06-04T11:25:01.906Z,6.03
2018-06-04T11:29:57.500Z,6.00
2018-06-04T11:34:52.886Z,5.30
2018-06-04T11:39:47.711Z,4.90
2018-06-04T11:44:43.072Z,4.80
2018-06-04T11:49:38.567Z,5.27
2018-06-04T11:54:33.700Z,5.30
2018-06-04T11:59:28.886Z,5.10
2018-06-04T12:04:23.538Z,4.70
2018-06-04T12:09:18.427Z,4.47
2018-06-04T12:14:13.600Z,4.37
2018-06-04T12:19:08.762Z,4.30
2018-06-04T12:24:04.539Z,4.80
2018-06-04T12:29:00.083Z,4.33
2018-06-04T12:33:55.153Z,4.57
2018-06-04T12:38:50.337Z,4.47
2018-06-04T12:43:45.473Z,4.87
2018-06-04T12:48:40.905Z,4.70
2018-06-04T12:53:36.305Z,4.73
2018-06-04T12:58:31.352Z,4.20
2018-06-04T13:03:26.062Z,4.30
2018-06-04T13:08:21.183Z,4.60
2018-06-04T13:13:17.178Z,4.40
2018-06-04T13:18:12.713Z,4.80
2018-06-04T13:23:08.266Z,4.40
2018-06-04T13:28:03.161Z,4.40
2018-06-04T13:32:58.171Z,4.60
2018-06-04T13:37:52.923Z,5.30
2018-06-04T13:42:47.659Z,4.13
2018-06-04T13:47:43.163Z,4.40
2018-06-04T13:52:38.644Z,4.83
2018-06-04T13:57:33.716Z,5.00
2018-06-04T14:02:29.056Z,4.80
2018-06-04T14:07:24.742Z,5.57
2018-06-04T14:12:20.001Z,5.40
2018-06-04T14:17:14.555Z,4.60
2018-06-04T14:22:09.746Z,5.20
2018-06-04T14:27:06.124Z,5.00
2018-06-04T14:32:01.828Z,5.60
2018-06-04T14:36:57.598Z,5.83
2018-06-04T14:41:52.682Z,5.50
2018-06-04T14:46:48.008Z,5.43
2018-06-04T14:51:42.526Z,5.60
2018-06-04T14:56:37.329Z,5.50
2018-06-04T15:01:33.167Z,6.07
2018-06-04T15:06:28.202Z,6.07
2018-06-04T15:11:23.814Z,6.00
2018-06-04T15:16:18.634Z,5.20
2018-06-04T15:21:13.374Z,5.27
2018-06-04T15:26:08.731Z,5.27
2018-06-04T15:31:03.338Z,6.35
2018-06-04T15:35:58.199Z,6.27
2018-06-04T15:40:53.193Z,5.67
2018-06-04T15:45:47.727Z,5.70
2018-06-04T15:50:42.504Z,6.63
2018-06-04T15:55:36.967Z,7.70
2018-06-04T16:00:32.113Z,7.93
2018-06-04T16:05:26.735Z,7.43
2018-06-04T16:10:21.178Z,7.13
2018-06-04T16:15:15.894Z,7.40
2018-06-04T16:20:10.374Z,7.53
2018-06-04T16:25:04.838Z,7.87
2018-06-04T16:29:59.344Z,7.77
2018-06-04T16:34:53.978Z,7.80
2018-06-04T16:39:48.479Z,7.50
2018-06-04T16:44:42.985Z,7.63
2018-06-04T16:49:37.726Z,8.87
2018-06-04T16:54:32.501Z,8.43
2018-06-04T16:59:27.912Z,8.37
2018-06-04T17:04:22.885Z,9.20
2018-06-04T17:09:17.308Z,8.13
2018-06-04T17:14:12.191Z,8.50
2018-06-04T17:19:07.131Z,9.97
2018-06-04T17:24:02.297Z,12.00
2018-06-04T17:28:57.069Z,11.10
2018-06-04T17:33:53.640Z,12.33
2018-06-04T17:38:47.978Z,11.67
2018-06-04T17:43:42.711Z,12.87
2018-06-04T17:48:37.682Z,12.67
2018-06-04T17:53:32.449Z,13.10
2018-06-04T17:58:27.116Z,12.87
2018-06-04T18:03:22.574Z,12.70
2018-06-04T18:08:17.228Z,12.17
2018-06-04T18:13:12.421Z,12.53
2018-06-04T18:18:06.940Z,12.93
2018-06-04T18:23:02.311Z,13.40
2018-06-04T18:27:57.376Z,13.93
2018-06-04T18:32:51.975Z,13.90
2018-06-04T18:37:46.718Z,12.50
2018-06-04T18:42:41.275Z,12.70
2018-06-04T18:47:36.037Z,11.90
2018-06-04T18:52:30.594Z,12.70
2018-06-04T18:57:25.247Z,12.20
2018-06-04T19:02:20.092Z,13.00
2018-06-04T19:07:14.736Z,13.17
2018-06-04T19:12:09.520Z,12.23
2018-06-04T19:17:04.857Z,12.07
2018-06-04T19:21:59.629Z,13.87
2018-06-04T19:26:55.629Z,13.10
2018-06-04T19:31:50.534Z,13.67
2018-06-04T19:36:46.958Z,13.87
2018-06-04T19:41:44.128Z,14.17
2018-06-04T19:46:38.688Z,14.07
2018-06-04T19:51:33.428Z,13.10
2018-06-04T19:56:28.064Z,14.37
2018-06-04T20:01:22.742Z,12.73
2018-06-04T20:06:17.707Z,12.67
2018-06-04T20:11:13.757Z,12.17
2018-06-04T20:16:08.838Z,12.00
2018-06-04T20:21:05.922Z,12.83
2018-06-04T20:26:03.020Z,12.97
2018-06-04T20:30:58.070Z,13.57
2018-06-04T20:35:53.467Z,14.20
2018-06-04T20:40:48.191Z,13.87
2018-06-04T20:45:42.861Z,13.77
2018-06-04T20:50:43.668Z,12.57
2018-06-04T20:55:38.870Z,13.27
2018-06-04T21:00:33.535Z,13.70
2018-06-04T21:05:29.417Z,14.03
2018-06-04T21:10:24.856Z,14.00
2018-06-04T21:15:20.156Z,13.93
2018-06-04T21:20:15.295Z,14.13
2018-06-04T21:25:10.368Z,15.47
2018-06-04T21:30:05.227Z,15.30
2018-06-04T21:35:00.364Z,15.27
2018-06-04T21:39:55.406Z,15.43
2018-06-04T21:44:54.152Z,16.03
2018-06-04T21:49:50.488Z,15.13
2018-06-04T21:54:45.647Z,15.47
2018-06-04T21:59:41.030Z,15.23
2018-06-04T22:04:36.032Z,15.13
2018-06-04T22:09:30.628Z,15.50
2018-06-04T22:14:25.681Z,14.90
2018-06-04T22:19:20.363Z,15.10
2018-06-04T22:24:15.292Z,15.13
2018-06-04T22:29:11.329Z,15.00
2018-06-04T22:34:06.466Z,15.40
2018-06-04T22:39:01.424Z,15.47
2018-06-04T22:43:56.242Z,15.97
2018-06-04T22:48:50.976Z,16.10
2018-06-04T22:53:45.801Z,16.13
2018-06-04T22:58:40.808Z,16.17
2018-06-04T23:03:35.643Z,16.40
2018-06-04T23:08:30.850Z,17.50
2018-06-04T23:13:25.404Z,16.20
2018-06-04T23:18:19.669Z,17.13
2018-06-04T23:23:14.288Z,16.87
2018-06-04T23:28:08.759Z,17.93
2018-06-04T23:33:04.016Z,18.20
2018-06-04T23:37:58.843Z,18.70
2018-06-04T23:42:53.274Z,18.63
2018-06-04T23:47:47.660Z,18.83
2018-06-04T23:52:42.182Z,19.23
2018-06-04T23:57:36.973Z,20.50
